createdAt,value
2023-08-11T00:00:43.916Z,101487.13
2023-08-11T00:03:11.273Z,101484.56
2023-08-11T00:05:41.068Z,101487.72
2023-08-11T00:08:09.622Z,101485.26
2023-08-11T00:10:37.521Z,101483.55
2023-08-11T00:13:05.381Z,101484.46
2023-08-11T00:15:33.521Z,101485.79
2023-08-11T00:18:03.372Z,101483.55
2023-08-11T00:20:31.105Z,101486.23
2023-08-11T00:22:58.789Z,101487.83
2023-08-11T00:25:26.859Z,101487.27
2023-08-11T00:27:54.241Z,101481.98
2023-08-11T00:30:21.596Z,101484.41
2023-08-11T00:32:50.236Z,101487.68
2023-08-11T00:35:17.268Z,101489.79
2023-08-11T00:37:44.449Z,101493.16
2023-08-11T00:40:13.367Z,101495.10
2023-08-11T00:42:41.254Z,101494.58
2023-08-11T00:45:08.812Z,101498.55
2023-08-11T00:47:37.103Z,101497.00
2023-08-11T00:50:04.796Z,101498.14
2023-08-11T00:52:31.960Z,101497.31
2023-08-11T00:54:59.295Z,101498.70
2023-08-11T00:57:26.567Z,101498.45
2023-08-11T00:59:53.950Z,101496.31
2023-08-11T01:02:23.157Z,101497.13
2023-08-11T01:04:50.264Z,101493.05
2023-08-11T01:07:23.094Z,101493.31
2023-08-11T01:10:00.244Z,101491.04
2023-08-11T01:13:05.276Z,101490.66
2023-08-11T01:15:38.207Z,101487.39
2023-08-11T01:18:07.904Z,101487.02
2023-08-11T01:20:36.864Z,101488.44
2023-08-11T01:23:07.934Z,101485.95
2023-08-11T01:25:35.557Z,101484.14
2023-08-11T01:28:03.761Z,101477.87
2023-08-11T01:30:31.538Z,101478.67
2023-08-11T01:32:58.585Z,101473.73
2023-08-11T01:35:38.947Z,101473.55
2023-08-11T01:38:12.438Z,101472.19
2023-08-11T01:40:40.236Z,101466.14
2023-08-11T01:43:08.817Z,101465.20
2023-08-11T01:45:35.895Z,101462.77
2023-08-11T01:48:03.744Z,101460.77
2023-08-11T01:50:32.736Z,101459.31
2023-08-11T01:52:59.738Z,101459.45
2023-08-11T01:55:27.651Z,101456.62
2023-08-11T01:57:59.154Z,101452.02
2023-08-11T02:00:29.972Z,101452.85
2023-08-11T02:02:59.325Z,101451.23
2023-08-11T02:05:27.210Z,101450.74
2023-08-11T02:07:55.134Z,101453.58
2023-08-11T02:10:22.256Z,101454.85
2023-08-11T02:12:50.310Z,101450.89
2023-08-11T02:15:17.730Z,101449.39
2023-08-11T02:17:45.636Z,101444.52
2023-08-11T02:20:18.782Z,101445.90
2023-08-11T02:22:46.435Z,101448.69
2023-08-11T02:25:16.259Z,101447.45
2023-08-11T02:27:43.688Z,101451.30
2023-08-11T02:30:12.419Z,101447.44
2023-08-11T02:32:40.968Z,101443.64
2023-08-11T02:35:08.581Z,101445.67
2023-08-11T02:37:35.551Z,101450.47
2023-08-11T02:40:02.703Z,101452.55
2023-08-11T02:42:30.978Z,101454.77
2023-08-11T02:44:58.583Z,101453.63
2023-08-11T02:47:25.665Z,101452.22
2023-08-11T02:49:52.751Z,101449.22
2023-08-11T02:52:19.810Z,101455.11
2023-08-11T02:54:46.827Z,101454.48
2023-08-11T02:57:14.500Z,101453.25
2023-08-11T02:59:41.636Z,101452.55
2023-08-11T03:02:09.692Z,101454.31
2023-08-11T03:04:37.622Z,101459.40
2023-08-11T03:07:06.855Z,101457.52
2023-08-11T03:09:34.905Z,101459.55
2023-08-11T03:12:02.049Z,101457.90
2023-08-11T03:14:29.734Z,101460.25
2023-08-11T03:16:57.075Z,101459.81
2023-08-11T03:19:24.209Z,101459.39
2023-08-11T03:21:51.210Z,101461.09
2023-08-11T03:24:18.259Z,101465.83
2023-08-11T03:26:45.218Z,101463.57
2023-08-11T03:29:12.705Z,101462.36
2023-08-11T03:31:42.044Z,101460.38
2023-08-11T03:34:09.186Z,101459.94
2023-08-11T03:36:36.526Z,101458.50
2023-08-11T03:39:04.061Z,101461.59
2023-08-11T03:41:31.197Z,101461.38
2023-08-11T03:43:58.637Z,101458.38
2023-08-11T03:46:26.316Z,101459.73
2023-08-11T03:48:54.092Z,101459.44
2023-08-11T03:51:21.196Z,101461.32
2023-08-11T03:53:48.469Z,101462.98
2023-08-11T03:56:15.794Z,101465.25
2023-08-11T03:58:45.279Z,101463.41
2023-08-11T04:01:14.055Z,101469.84
2023-08-11T04:03:42.889Z,101472.34
2023-08-11T04:06:11.428Z,101478.73
2023-08-11T04:08:39.512Z,101482.88
2023-08-11T04:11:06.913Z,101486.17
2023-08-11T04:13:34.922Z,101488.48
2023-08-11T04:16:02.032Z,101490.34
2023-08-11T04:18:29.140Z,101487.57
2023-08-11T04:20:56.406Z,101487.75
2023-08-11T04:23:23.683Z,101493.83
2023-08-11T04:25:50.932Z,101492.45
2023-08-11T04:28:19.619Z,101494.42
2023-08-11T04:30:46.905Z,101493.86
2023-08-11T04:33:14.624Z,101497.40
2023-08-11T04:35:43.324Z,101498.76
2023-08-11T04:38:11.491Z,101503.79
2023-08-11T04:40:39.072Z,101504.14
2023-08-11T04:43:06.936Z,101504.98
2023-08-11T04:45:39.025Z,101506.28
2023-08-11T04:48:07.220Z,101507.64
2023-08-11T04:50:34.723Z,101510.77
2023-08-11T04:53:01.865Z,101511.19
2023-08-11T04:55:31.673Z,101518.85
2023-08-11T04:58:00.879Z,101519.38
2023-08-11T05:00:27.969Z,101524.20
2023-08-11T05:02:55.723Z,101527.52
2023-08-11T05:05:23.111Z,101534.95
2023-08-11T05:07:50.312Z,101529.77
2023-08-11T05:10:17.856Z,101532.95
2023-08-11T05:12:46.643Z,101529.59
2023-08-11T05:15:13.987Z,101530.75
2023-08-11T05:17:41.075Z,101527.27
2023-08-11T05:20:09.215Z,101527.07
2023-08-11T05:22:37.283Z,101528.73
2023-08-11T05:25:05.884Z,101530.39
2023-08-11T05:27:33.218Z,101525.95
2023-08-11T05:30:00.385Z,101525.52
2023-08-11T05:32:27.772Z,101530.19
2023-08-11T05:34:57.352Z,101530.20
2023-08-11T05:37:26.331Z,101529.98
2023-08-11T05:39:54.010Z,101535.26
2023-08-11T05:42:22.134Z,101536.96
2023-08-11T05:44:49.147Z,101536.25
2023-08-11T05:47:16.481Z,101536.27
2023-08-11T05:49:43.719Z,101538.13
2023-08-11T05:52:11.105Z,101544.01
2023-08-11T05:54:38.254Z,101546.56
2023-08-11T05:57:05.529Z,101546.04
2023-08-11T05:59:32.438Z,101545.60
2023-08-11T06:01:59.579Z,101551.66
2023-08-11T06:04:26.748Z,101550.48
2023-08-11T06:06:53.901Z,101552.27
2023-08-11T06:09:20.922Z,101555.70
2023-08-11T06:11:48.023Z,101558.61
2023-08-11T06:14:15.199Z,101560.43
2023-08-11T06:16:42.386Z,101561.48
2023-08-11T06:19:09.970Z,101563.67
2023-08-11T06:21:38.928Z,101567.74
2023-08-11T06:24:06.392Z,101570.55
2023-08-11T06:26:33.395Z,101568.30
2023-08-11T06:29:00.566Z,101573.52
2023-08-11T06:31:27.815Z,101574.30
2023-08-11T06:33:55.522Z,101575.75
2023-08-11T06:36:23.838Z,101578.60
2023-08-11T06:38:52.012Z,101583.52
2023-08-11T06:41:19.097Z,101585.94
2023-08-11T06:43:48.649Z,101587.91
2023-08-11T06:46:16.480Z,101586.80
2023-08-11T06:48:43.588Z,101585.33
2023-08-11T06:51:10.769Z,101588.45
2023-08-11T06:53:38.240Z,101585.98
2023-08-11T06:56:05.240Z,101588.04
2023-08-11T06:58:32.293Z,101586.67
2023-08-11T07:00:59.500Z,101591.69
2023-08-11T07:03:26.753Z,101592.33
2023-08-11T07:05:54.854Z,101591.91
2023-08-11T07:08:22.165Z,101591.61
2023-08-11T07:10:49.515Z,101595.23
2023-08-11T07:13:16.500Z,101596.58
2023-08-11T07:15:44.072Z,101598.64
2023-08-11T07:18:12.287Z,101601.33
2023-08-11T07:20:43.603Z,101606.10
2023-08-11T07:23:11.572Z,101612.65
2023-08-11T07:25:39.290Z,101614.94
2023-08-11T07:28:07.116Z,101619.09
2023-08-11T07:30:34.607Z,101619.52
2023-08-11T07:33:02.956Z,101621.86
2023-08-11T07:35:30.883Z,101623.58
2023-08-11T07:37:58.187Z,101627.55
2023-08-11T07:40:25.236Z,101629.74
2023-08-11T07:42:52.383Z,101627.39
2023-08-11T07:45:19.430Z,101631.61
2023-08-11T07:47:47.073Z,101635.73
2023-08-11T07:50:14.250Z,101637.73
2023-08-11T07:52:41.401Z,101640.30
2023-08-11T07:55:09.150Z,101644.73
2023-08-11T07:57:36.406Z,101648.34
2023-08-11T08:00:06.540Z,101650.08
2023-08-11T08:02:39.600Z,101651.63
2023-08-11T08:05:15.926Z,101651.25
2023-08-11T08:07:43.096Z,101649.05
2023-08-11T08:10:10.805Z,101644.80
2023-08-11T08:12:39.083Z,101648.32
2023-08-11T08:15:08.087Z,101651.95
2023-08-11T08:17:36.203Z,101656.17
2023-08-11T08:20:06.395Z,101658.77
2023-08-11T08:22:36.234Z,101660.78
2023-08-11T08:25:11.577Z,101661.80
2023-08-11T08:27:40.834Z,101656.83
2023-08-11T08:30:13.161Z,101662.02
2023-08-11T08:32:42.012Z,101660.29
2023-08-11T08:35:10.589Z,101662.70
2023-08-11T08:37:38.135Z,101659.72
2023-08-11T08:40:05.990Z,101657.20
2023-08-11T08:42:34.278Z,101658.38
2023-08-11T08:45:02.388Z,101660.46
2023-08-11T08:47:30.457Z,101657.45
2023-08-11T08:49:59.310Z,101654.20
2023-08-11T08:52:26.765Z,101653.17
2023-08-11T08:54:54.225Z,101654.13
2023-08-11T08:57:23.511Z,101654.04
2023-08-11T08:59:50.657Z,101654.35
2023-08-11T09:02:18.761Z,101655.38
2023-08-11T09:04:47.828Z,101657.69
2023-08-11T09:07:17.083Z,101661.00
2023-08-11T09:09:46.242Z,101659.98
2023-08-11T09:12:14.201Z,101663.01
2023-08-11T09:14:43.695Z,101663.70
2023-08-11T09:17:10.988Z,101663.16
2023-08-11T09:19:38.923Z,101667.61
2023-08-11T09:22:12.349Z,101671.45
2023-08-11T09:24:41.926Z,101668.09
2023-08-11T09:27:08.930Z,101665.20
2023-08-11T09:29:37.524Z,101670.08
2023-08-11T09:32:05.878Z,101668.73
2023-08-11T09:34:33.582Z,101669.64
2023-08-11T09:37:01.361Z,101669.48
2023-08-11T09:39:30.646Z,101667.71
2023-08-11T09:41:58.388Z,101666.48
2023-08-11T09:44:26.715Z,101670.29
2023-08-11T09:46:54.915Z,101668.09
2023-08-11T09:49:27.078Z,101662.85
2023-08-11T09:52:03.681Z,101667.33
2023-08-11T09:54:33.521Z,101666.45
2023-08-11T09:57:04.636Z,101669.67
2023-08-11T09:59:32.594Z,101663.12
2023-08-11T10:02:04.057Z,101662.10
2023-08-11T10:04:43.059Z,101662.10
2023-08-11T10:07:16.848Z,101659.63
2023-08-11T10:09:52.735Z,101658.56
2023-08-11T10:12:29.358Z,101659.52
2023-08-11T10:15:03.843Z,101659.64
2023-08-11T10:17:32.878Z,101663.50
2023-08-11T10:20:06.008Z,101661.95
2023-08-11T10:22:34.182Z,101664.73
2023-08-11T10:25:05.785Z,101663.94
2023-08-11T10:27:34.953Z,101666.08
2023-08-11T10:30:05.063Z,101667.07
2023-08-11T10:32:35.629Z,101661.32
2023-08-11T10:35:03.027Z,101659.11
2023-08-11T10:37:31.982Z,101661.81
2023-08-11T10:40:06.471Z,101657.17
2023-08-11T10:42:37.508Z,101655.98
2023-08-11T10:45:13.048Z,101652.92
2023-08-11T10:47:54.157Z,101654.82
2023-08-11T10:50:24.992Z,101658.04
2023-08-11T10:53:23.397Z,101659.75
2023-08-11T10:56:04.678Z,101655.36
2023-08-11T10:58:32.126Z,101651.61
2023-08-11T11:01:02.748Z,101651.34
2023-08-11T11:03:29.903Z,101648.61
2023-08-11T11:05:57.583Z,101643.33
2023-08-11T11:08:25.025Z,101645.42
2023-08-11T11:10:52.033Z,101645.05
2023-08-11T11:13:19.321Z,101643.94
2023-08-11T11:15:46.776Z,101640.83
2023-08-11T11:18:14.246Z,101640.42
2023-08-11T11:20:41.291Z,101640.75
2023-08-11T11:23:08.401Z,101636.12
2023-08-11T11:25:35.814Z,101637.89
2023-08-11T11:28:03.118Z,101636.30
2023-08-11T11:30:30.609Z,101635.09
2023-08-11T11:33:01.434Z,101633.97
2023-08-11T11:35:30.025Z,101637.88
2023-08-11T11:37:57.185Z,101637.13
2023-08-11T11:40:24.428Z,101631.77
2023-08-11T11:42:51.790Z,101633.59
2023-08-11T11:45:19.167Z,101634.64
2023-08-11T11:47:48.574Z,101636.02
2023-08-11T11:50:15.691Z,101630.86
2023-08-11T11:52:48.037Z,101631.55
2023-08-11T11:55:18.098Z,101627.65
2023-08-11T11:57:45.762Z,101631.40
2023-08-11T12:00:20.377Z,101629.80
2023-08-11T12:02:48.083Z,101626.59
2023-08-11T12:05:16.139Z,101629.73
2023-08-11T12:07:45.640Z,101630.30
2023-08-11T12:10:12.859Z,101631.82
2023-08-11T12:12:39.959Z,101630.20
2023-08-11T12:15:09.311Z,101627.71
2023-08-11T12:17:37.782Z,101623.16
2023-08-11T12:20:11.555Z,101625.53
2023-08-11T12:22:38.738Z,101622.20
2023-08-11T12:25:05.911Z,101620.91
2023-08-11T12:27:33.282Z,101617.42
2023-08-11T12:30:00.476Z,101615.08
2023-08-11T12:32:27.739Z,101614.45
2023-08-11T12:34:54.755Z,101608.98
2023-08-11T12:37:21.930Z,101608.01
2023-08-11T12:39:48.940Z,101609.25
2023-08-11T12:42:16.021Z,101606.78
2023-08-11T12:44:43.015Z,101602.36
2023-08-11T12:47:10.450Z,101597.27
2023-08-11T12:49:38.037Z,101594.96
2023-08-11T12:52:05.283Z,101596.35
2023-08-11T12:54:32.467Z,101596.92
2023-08-11T12:56:59.565Z,101594.42
2023-08-11T12:59:26.608Z,101590.91
2023-08-11T13:01:53.820Z,101588.21
2023-08-11T13:04:20.930Z,101584.63
2023-08-11T13:06:48.015Z,101583.38
2023-08-11T13:09:17.168Z,101574.86
2023-08-11T13:11:45.109Z,101571.56
2023-08-11T13:14:12.156Z,101568.45
2023-08-11T13:16:39.201Z,101566.15
2023-08-11T13:19:06.743Z,101564.78
2023-08-11T13:21:34.441Z,101563.75
2023-08-11T13:24:02.224Z,101564.27
2023-08-11T13:26:29.652Z,101564.44
2023-08-11T13:28:58.755Z,101563.50
2023-08-11T13:31:26.786Z,101564.20
2023-08-11T13:33:53.880Z,101562.67
2023-08-11T13:36:21.152Z,101562.78
2023-08-11T13:38:48.430Z,101564.18
2023-08-11T13:41:15.485Z,101561.92
2023-08-11T13:43:42.590Z,101561.71
2023-08-11T13:46:10.854Z,101559.65
2023-08-11T13:48:37.933Z,101559.52
2023-08-11T13:51:05.499Z,101559.16
2023-08-11T13:53:32.662Z,101557.30
2023-08-11T13:55:59.777Z,101557.96
2023-08-11T13:58:26.912Z,101558.04
2023-08-11T14:00:54.107Z,101559.93
2023-08-11T14:03:21.177Z,101556.23
2023-08-11T14:05:49.279Z,101555.40
2023-08-11T14:08:16.416Z,101549.16
2023-08-11T14:10:43.573Z,101552.00
2023-08-11T14:13:12.045Z,101552.10
2023-08-11T14:15:39.904Z,101548.63
2023-08-11T14:18:07.826Z,101545.89
2023-08-11T14:20:35.462Z,101546.58
2023-08-11T14:23:02.614Z,101544.16
2023-08-11T14:25:29.717Z,101542.94
2023-08-11T14:27:56.912Z,101545.89
2023-08-11T14:30:24.611Z,101542.47
2023-08-11T14:32:52.623Z,101543.61
2023-08-11T14:35:20.386Z,101543.86
2023-08-11T14:37:47.409Z,101540.39
2023-08-11T14:40:14.770Z,101538.15
2023-08-11T14:42:42.071Z,101535.59
2023-08-11T14:45:09.682Z,101532.77
2023-08-11T14:47:36.903Z,101531.53
2023-08-11T14:50:05.216Z,101532.82
2023-08-11T14:52:32.394Z,101531.91
2023-08-11T14:55:02.707Z,101531.97
2023-08-11T14:57:30.493Z,101527.88
2023-08-11T14:59:57.751Z,101528.23
2023-08-11T15:02:25.131Z,101530.20
2023-08-11T15:04:52.267Z,101524.20
2023-08-11T15:07:19.947Z,101523.57
2023-08-11T15:09:47.579Z,101522.83
2023-08-11T15:12:14.728Z,101519.30
2023-08-11T15:14:41.877Z,101519.58
2023-08-11T15:17:08.852Z,101514.34
2023-08-11T15:19:36.316Z,101514.35
2023-08-11T15:22:03.872Z,101512.36
2023-08-11T15:24:31.617Z,101510.48
2023-08-11T15:26:59.115Z,101509.00
2023-08-11T15:29:26.993Z,101509.85
2023-08-11T15:31:54.934Z,101507.70
2023-08-11T15:34:22.557Z,101504.15
2023-08-11T15:36:49.815Z,101499.64
2023-08-11T15:52:51.782Z,101485.77
2023-08-11T15:55:27.445Z,101482.84
2023-08-11T15:58:03.019Z,101483.43
2023-08-11T16:00:30.187Z,101481.87
2023-08-11T16:02:57.749Z,101476.33
2023-08-11T16:05:24.950Z,101473.85
2023-08-11T16:07:52.098Z,101470.91
2023-08-11T16:10:19.317Z,101469.83
2023-08-11T16:12:46.504Z,101470.07
2023-08-11T16:15:13.623Z,101470.02
2023-08-11T16:17:41.023Z,101464.05
2023-08-11T16:20:09.193Z,101469.15
2023-08-11T16:22:36.369Z,101464.58
2023-08-11T16:25:03.539Z,101462.16
2023-08-11T16:27:34.837Z,101462.83
2023-08-11T16:30:02.603Z,101458.27
2023-08-11T16:32:29.882Z,101458.80
2023-08-11T16:34:57.419Z,101461.44
2023-08-11T16:37:24.972Z,101461.72
2023-08-11T16:39:52.116Z,101462.65
2023-08-11T16:42:20.094Z,101465.83
2023-08-11T16:44:48.281Z,101467.83
2023-08-11T16:47:15.962Z,101468.52
2023-08-11T16:49:43.305Z,101470.80
2023-08-11T16:52:10.808Z,101478.66
2023-08-11T16:54:38.852Z,101476.06
2023-08-11T16:57:08.837Z,101475.98
2023-08-11T16:59:36.202Z,101478.67
2023-08-11T17:02:04.569Z,101472.80
2023-08-11T17:04:31.807Z,101477.21
2023-08-11T17:06:58.987Z,101478.09
2023-08-11T17:09:26.152Z,101483.24
2023-08-11T17:11:53.395Z,101489.75
2023-08-11T17:14:20.439Z,101490.89
2023-08-11T17:16:47.783Z,101492.58
2023-08-11T17:19:15.164Z,101493.13
2023-08-11T17:21:43.534Z,101494.98
2023-08-11T17:24:11.501Z,101497.05
2023-08-11T17:26:39.795Z,101494.48
2023-08-11T17:29:07.554Z,101498.26
2023-08-11T17:31:34.799Z,101500.30
2023-08-11T17:34:02.174Z,101498.53
2023-08-11T17:36:30.561Z,101499.88
2023-08-11T17:38:58.035Z,101505.78
2023-08-11T17:41:25.755Z,101508.89
2023-08-11T17:43:53.330Z,101508.75
2023-08-11T17:46:21.736Z,101509.46
2023-08-11T17:48:48.913Z,101509.84
2023-08-11T17:51:16.821Z,101507.85
2023-08-11T17:53:47.435Z,101507.96
2023-08-11T17:56:19.679Z,101510.42
2023-08-11T17:58:46.747Z,101512.67
2023-08-11T18:01:13.764Z,101512.30
2023-08-11T18:03:41.360Z,101512.17
2023-08-11T18:06:08.457Z,101511.40
2023-08-11T18:08:35.712Z,101510.33
2023-08-11T18:11:02.749Z,101514.09
2023-08-11T18:13:29.935Z,101514.02
2023-08-11T18:15:57.012Z,101515.48
2023-08-11T18:18:24.421Z,101514.63
2023-08-11T18:20:51.528Z,101513.48
2023-08-11T18:23:18.732Z,101515.67
2023-08-11T18:25:45.902Z,101521.80
2023-08-11T18:28:13.239Z,101524.77
2023-08-11T18:30:40.769Z,101526.45
2023-08-11T18:33:08.083Z,101530.59
2023-08-11T18:35:35.391Z,101530.66
2023-08-11T18:38:02.857Z,101533.42
2023-08-11T18:40:30.173Z,101533.92
2023-08-11T18:42:57.202Z,101532.48
2023-08-11T18:45:24.247Z,101535.42
2023-08-11T18:47:53.121Z,101538.95
2023-08-11T18:50:20.302Z,101546.92
2023-08-11T18:52:47.329Z,101543.27
2023-08-11T18:55:14.339Z,101544.75
2023-08-11T18:57:41.288Z,101552.08
2023-08-11T19:00:10.255Z,101553.48
2023-08-11T19:02:37.695Z,101549.50
2023-08-11T19:05:05.269Z,101551.06
2023-08-11T19:07:32.492Z,101551.38
2023-08-11T19:09:59.421Z,101550.22
2023-08-11T19:12:26.371Z,101553.86
2023-08-11T19:14:53.761Z,101555.85
2023-08-11T19:17:21.943Z,101557.91
2023-08-11T19:19:49.189Z,101556.39
2023-08-11T19:22:16.334Z,101562.23
2023-08-11T19:24:43.397Z,101563.52
2023-08-11T19:27:10.722Z,101568.20
2023-08-11T19:29:37.714Z,101564.52
2023-08-11T19:32:05.465Z,101566.14
2023-08-11T19:34:32.430Z,101560.66
2023-08-11T19:36:59.405Z,101560.73
2023-08-11T19:39:26.654Z,101564.55
2023-08-11T19:41:53.962Z,101565.66
2023-08-11T19:44:21.096Z,101563.17
2023-08-11T19:46:48.453Z,101565.39
2023-08-11T19:49:16.423Z,101565.46
2023-08-11T19:51:45.716Z,101566.39
2023-08-11T19:54:13.630Z,101566.30
2023-08-11T19:56:42.356Z,101571.73
2023-08-11T19:59:09.287Z,101569.96
2023-08-11T20:01:36.364Z,101568.48
2023-08-11T20:04:03.458Z,101567.66
2023-08-11T20:06:31.002Z,101567.71
2023-08-11T20:08:58.076Z,101572.23
2023-08-11T20:11:25.129Z,101572.53
2023-08-11T20:13:52.081Z,101568.48
2023-08-11T20:16:19.138Z,101570.46
2023-08-11T20:18:46.181Z,101573.10
2023-08-11T20:21:13.987Z,101571.63
2023-08-11T20:23:40.937Z,101575.67
2023-08-11T20:26:08.005Z,101574.91
2023-08-11T20:28:34.953Z,101575.85
2023-08-11T20:31:02.898Z,101574.83
2023-08-11T20:33:29.930Z,101572.64
2023-08-11T20:35:59.833Z,101573.85
2023-08-11T20:38:27.663Z,101573.89
2023-08-11T20:40:58.352Z,101574.30
2023-08-11T20:43:25.403Z,101574.03
2023-08-11T20:45:52.565Z,101573.44
2023-08-11T20:48:21.257Z,101572.78
2023-08-11T20:50:52.518Z,101570.48
2023-08-11T20:53:22.628Z,101571.74
2023-08-11T20:55:49.815Z,101571.11
2023-08-11T20:58:16.835Z,101571.47
2023-08-11T21:00:43.846Z,101566.69
2023-08-11T21:03:10.883Z,101567.60
2023-08-11T21:05:42.501Z,101566.58
2023-08-11T21:08:14.472Z,101565.30
2023-08-11T21:10:45.301Z,101564.13
2023-08-11T21:13:13.075Z,101558.98
2023-08-11T21:15:40.848Z,101559.29
2023-08-11T21:18:09.103Z,101557.93
2023-08-11T21:20:37.231Z,101559.80
2023-08-11T21:23:05.734Z,101563.39
2023-08-11T21:25:33.415Z,101562.96
2023-08-11T21:28:00.494Z,101560.11
2023-08-11T21:30:27.508Z,101563.92
2023-08-11T21:32:54.617Z,101562.78
2023-08-11T21:35:22.279Z,101566.40
2023-08-11T21:37:50.070Z,101566.98
2023-08-11T21:40:17.750Z,101566.06
2023-08-11T21:42:45.562Z,101569.75
2023-08-11T21:45:12.668Z,101568.85
2023-08-11T21:47:39.808Z,101567.34
2023-08-11T21:50:08.375Z,101570.07
2023-08-11T21:52:35.697Z,101571.40
2023-08-11T21:55:04.585Z,101572.64
2023-08-11T21:57:32.918Z,101569.66
2023-08-11T22:00:00.666Z,101571.39
2023-08-11T22:02:27.893Z,101573.59
2023-08-11T22:04:54.986Z,101575.48
2023-08-11T22:07:24.243Z,101578.11
2023-08-11T22:09:51.319Z,101576.74
2023-08-11T22:12:18.463Z,101581.50
2023-08-11T22:14:46.331Z,101582.45
2023-08-11T22:17:14.963Z,101581.60
2023-08-11T22:19:47.060Z,101574.78
2023-08-11T22:22:17.880Z,101571.95
2023-08-11T22:24:44.993Z,101571.30
2023-08-11T22:27:12.946Z,101567.80
2023-08-11T22:29:40.399Z,101568.67
2023-08-11T22:32:07.453Z,101567.75
2023-08-11T22:34:34.592Z,101568.02
2023-08-11T22:37:01.926Z,101566.37
2023-08-11T22:39:28.956Z,101567.56
2023-08-11T22:41:55.972Z,101567.34
2023-08-11T22:44:22.981Z,101571.08
2023-08-11T22:46:51.218Z,101571.82
2023-08-11T22:49:18.247Z,101568.34
2023-08-11T22:51:45.326Z,101565.21
2023-08-11T22:54:14.546Z,101565.63
2023-08-11T22:56:43.174Z,101563.64
2023-08-11T22:59:10.213Z,101560.54
2023-08-11T23:01:37.530Z,101557.33
2023-08-11T23:04:05.118Z,101555.89
2023-08-11T23:06:32.113Z,101557.58
2023-08-11T23:08:59.309Z,101556.95
2023-08-11T23:11:26.227Z,101553.83
2023-08-11T23:13:53.250Z,101550.72
2023-08-11T23:16:20.237Z,101552.23
2023-08-11T23:18:47.276Z,101550.40
2023-08-11T23:21:14.579Z,101551.35
2023-08-11T23:23:41.611Z,101545.68
2023-08-11T23:26:09.637Z,101546.10
2023-08-11T23:28:36.891Z,101539.98
2023-08-11T23:31:04.007Z,101536.64
2023-08-11T23:33:31.208Z,101536.31
2023-08-11T23:35:58.200Z,101530.85
2023-08-11T23:38:25.200Z,101529.45
2023-08-11T23:40:52.229Z,101528.02
2023-08-11T23:43:19.245Z,101525.08
2023-08-11T23:45:46.325Z,101525.39
2023-08-11T23:48:13.495Z,101526.58
2023-08-11T23:50:40.702Z,101524.23
2023-08-11T23:53:07.756Z,101521.83
2023-08-11T23:55:34.759Z,101519.25
2023-08-11T23:58:01.755Z,101514.95
